Time;durP1;ratioP1;P1;durP2;ratioP2;P2;SDS_P1;SDS_P2;PMS_P1;PMS_P2;Temp;Humidity;BMP_temperature;BMP_pressure;BME280_temperature;BME280_humidity;BME280_pressure;Samples;Min_cycle;Max_cycle;Signal;HPM_P1;HPM_P2
2021/07/19 00:02:17;;;;;;;4.27;3.70;;;19.80;99.90;;;;;;5067642;28;20217;-60
2021/07/19 00:04:44;;;;;;;3.37;3.03;;;19.80;99.90;;;;;;5053112;28;20181;-61
2021/07/19 00:07:11;;;;;;;5.00;3.90;;;19.80;99.90;;;;;;5057476;28;20181;-60
2021/07/19 00:09:37;;;;;;;3.47;3.15;;;19.70;99.90;;;;;;5062048;28;20217;-61
2021/07/19 00:12:05;;;;;;;3.80;3.50;;;19.60;99.90;;;;;;5070309;28;20191;-60
2021/07/19 00:14:31;;;;;;;4.20;3.80;;;19.50;99.90;;;;;;5063291;28;20685;-60
2021/07/19 00:16:57;;;;;;;3.53;3.22;;;19.50;99.90;;;;;;5068201;28;20185;-61
2021/07/19 00:19:23;;;;;;;3.83;3.53;;;19.40;99.90;;;;;;5057267;28;20633;-60
2021/07/19 00:21:49;;;;;;;3.60;3.30;;;19.40;99.90;;;;;;5062433;28;20189;-60
2021/07/19 00:24:14;;;;;;;3.70;3.17;;;19.40;99.90;;;;;;5060106;28;20557;-60
2021/07/19 00:26:40;;;;;;;3.47;3.00;;;19.30;99.90;;;;;;5063401;28;20439;-61
2021/07/19 00:29:06;;;;;;;3.93;3.50;;;19.30;99.90;;;;;;5067879;28;20262;-60
2021/07/19 00:31:32;;;;;;;6.23;3.50;;;19.20;99.90;;;;;;5059078;28;20185;-61
2021/07/19 00:34:00;;;;;;;4.28;3.55;;;19.20;99.90;;;;;;5060111;28;20555;-61
2021/07/19 00:36:25;;;;;;;3.90;3.50;;;19.10;99.90;;;;;;5062369;28;20188;-60
2021/07/19 00:38:52;;;;;;;3.10;2.90;;;19.20;99.90;;;;;;5058488;28;20185;-60
2021/07/19 00:41:19;;;;;;;3.75;3.20;;;19.10;99.90;;;;;;5059941;28;20694;-61
2021/07/19 00:43:45;;;;;;;4.60;2.97;;;19.00;99.90;;;;;;5062664;28;20185;-60
2021/07/19 00:46:10;;;;;;;4.47;3.50;;;19.00;99.90;;;;;;5055026;28;20557;-60
2021/07/19 00:48:36;;;;;;;3.97;3.40;;;19.00;99.90;;;;;;5058643;28;20233;-61
2021/07/19 00:51:02;;;;;;;4.60;4.20;;;19.00;99.90;;;;;;5057875;28;20307;-61
2021/07/19 00:53:28;;;;;;;4.03;3.60;;;18.90;99.90;;;;;;5059395;28;20198;-60
2021/07/19 00:55:55;;;;;;;3.73;3.20;;;19.00;99.90;;;;;;5064590;28;20188;-60
2021/07/19 00:58:25;;;;;;;3.70;3.38;;;18.90;99.90;;;;;;5062139;28;20677;-61
2021/07/19 01:00:55;;;;;;;4.25;3.67;;;18.80;99.90;;;;;;5060548;28;20213;-61
2021/07/19 01:03:23;;;;;;;3.55;3.25;;;18.70;99.90;;;;;;5063416;28;20310;-61
2021/07/19 01:05:49;;;;;;;4.85;3.33;;;18.80;99.90;;;;;;5062760;28;20185;-61
2021/07/19 01:08:18;;;;;;;4.15;3.85;;;18.70;99.90;;;;;;5064579;28;20674;-62
2021/07/19 01:10:44;;;;;;;7.50;3.50;;;18.60;99.90;;;;;;5060397;28;20209;-62
2021/07/19 01:13:10;;;;;;;6.37;3.60;;;18.50;99.90;;;;;;5054635;28;20185;-60
2021/07/19 01:15:38;;;;;;;4.57;3.75;;;18.60;99.90;;;;;;5055809;28;20184;-60
2021/07/19 01:18:05;;;;;;;4.35;3.45;;;18.60;99.90;;;;;;5059265;28;20271;-60
2021/07/19 01:20:58;;;;;;;3.50;3.20;;;18.50;99.90;;;;;;5063015;28;20317;-61
2021/07/19 01:23:38;;;;;;;4.10;3.70;;;18.60;99.90;;;;;;5059964;28;20186;-60
2021/07/19 01:26:33;;;;;;;3.50;3.20;;;18.50;99.90;;;;;;5063832;28;20273;-60
2021/07/19 01:29:01;;;;;;;4.07;3.15;;;18.50;99.90;;;;;;5063503;28;20684;-60
2021/07/19 01:31:29;;;;;;;3.50;3.30;;;18.50;99.90;;;;;;5061393;28;20176;-61
2021/07/19 01:33:59;;;;;;;3.80;3.50;;;18.30;99.90;;;;;;5065875;28;20210;-60
2021/07/19 01:36:31;;;;;;;4.68;3.97;;;18.40;99.90;;;;;;5060247;28;20185;-60
2021/07/19 01:38:59;;;;;;;4.30;3.90;;;18.40;99.90;;;;;;5065630;28;20556;-60
2021/07/19 01:41:27;;;;;;;3.85;3.45;;;18.40;99.90;;;;;;5061940;28;20693;-61
2021/07/19 01:43:55;;;;;;;4.25;3.42;;;18.20;99.90;;;;;;5056385;28;20852;-61
2021/07/19 01:46:22;;;;;;;3.97;3.30;;;18.20;99.90;;;;;;5059916;28;20231;-60
2021/07/19 01:48:48;;;;;;;6.10;3.42;;;18.20;99.90;;;;;;5057291;28;20193;-61
2021/07/19 01:51:15;;;;;;;8.45;3.38;;;18.10;99.90;;;;;;5055185;28;20753;-61
2021/07/19 01:53:42;;;;;;;4.07;3.78;;;18.10;99.90;;;;;;5055668;28;20192;-61
2021/07/19 01:56:08;;;;;;;3.88;3.47;;;18.10;99.90;;;;;;5055030;28;20185;-62
2021/07/19 01:58:34;;;;;;;4.45;3.60;;;18.10;99.90;;;;;;5055680;28;20188;-61
2021/07/19 02:01:01;;;;;;;5.78;4.10;;;18.10;99.90;;;;;;5063109;28;20578;-61
2021/07/19 02:03:27;;;;;;;4.78;3.45;;;18.00;99.90;;;;;;5061150;28;20188;-61
2021/07/19 02:05:56;;;;;;;5.90;3.17;;;18.00;99.90;;;;;;5053789;28;20190;-61
2021/07/19 02:08:22;;;;;;;4.18;3.75;;;18.00;99.90;;;;;;5056105;28;20192;-62
2021/07/19 02:10:53;;;;;;;3.67;3.38;;;17.90;99.90;;;;;;5057802;28;20721;-61
2021/07/19 02:13:20;;;;;;;6.13;3.60;;;17.90;99.90;;;;;;5052361;28;20192;-61
2021/07/19 02:15:49;;;;;;;3.80;3.50;;;18.00;99.90;;;;;;5064766;28;20190;-62
2021/07/19 02:18:17;;;;;;;4.15;3.47;;;17.90;99.90;;;;;;5051239;28;20204;-61
2021/07/19 02:20:44;;;;;;;4.00;3.70;;;17.80;99.90;;;;;;5058280;28;20254;-61
2021/07/19 02:23:11;;;;;;;3.50;3.20;;;17.90;99.90;;;;;;5062711;28;20268;-61
2021/07/19 02:25:39;;;;;;;3.75;3.30;;;17.90;99.90;;;;;;5052234;28;20185;-61
2021/07/19 02:28:07;;;;;;;5.05;3.63;;;17.80;99.90;;;;;;5056305;28;20186;-61
2021/07/19 02:30:33;;;;;;;4.13;3.72;;;17.80;99.90;;;;;;5060452;28;20220;-61
2021/07/19 02:32:59;;;;;;;3.95;3.65;;;17.80;99.90;;;;;;5065025;28;20685;-61
2021/07/19 02:35:27;;;;;;;4.15;3.75;;;17.70;99.90;;;;;;5056368;28;20698;-61
2021/07/19 02:37:57;;;;;;;3.92;3.63;;;17.80;99.90;;;;;;5062574;28;20253;-61
2021/07/19 02:40:24;;;;;;;3.72;3.13;;;17.80;99.90;;;;;;5062667;28;20273;-61
2021/07/19 02:42:55;;;;;;;5.65;4.20;;;17.90;99.90;;;;;;5060038;28;20598;-61
2021/07/19 02:45:21;;;;;;;6.68;3.60;;;17.90;99.90;;;;;;5060453;28;20185;-61
2021/07/19 02:47:49;;;;;;;4.15;3.80;;;17.60;99.90;;;;;;5069951;28;20220;-61
2021/07/19 02:50:19;;;;;;;3.65;3.35;;;17.60;99.90;;;;;;5068037;28;20223;-62
2021/07/19 02:52:46;;;;;;;4.55;4.13;;;17.50;99.90;;;;;;5064760;28;20234;-61
2021/07/19 02:55:16;;;;;;;4.10;3.70;;;17.50;99.90;;;;;;5065174;28;20547;-61
2021/07/19 02:57:42;;;;;;;5.40;3.58;;;17.30;99.90;;;;;;5055624;28;20276;-61
2021/07/19 03:00:10;;;;;;;4.65;3.85;;;17.60;99.90;;;;;;5057527;28;20638;-61
2021/07/19 03:02:43;;;;;;;4.38;3.45;;;17.30;99.90;;;;;;5067213;28;20188;-61
2021/07/19 03:05:10;;;;;;;3.85;3.55;;;17.40;99.90;;;;;;5065126;28;20272;-61
2021/07/19 03:07:38;;;;;;;4.22;3.85;;;17.30;99.90;;;;;;5068225;28;20191;-61
2021/07/19 03:10:08;;;;;;;11.30;4.10;;;17.20;99.90;;;;;;5059267;28;20232;-60
2021/07/19 03:12:37;;;;;;;4.70;4.30;;;17.30;99.90;;;;;;5060634;28;20188;-60
2021/07/19 03:15:04;;;;;;;4.90;3.90;;;17.30;99.90;;;;;;5065661;28;20185;-61
2021/07/19 03:17:31;;;;;;;4.35;3.95;;;17.40;99.90;;;;;;5058932;28;20308;-60
2021/07/19 03:19:59;;;;;;;3.85;3.55;;;17.60;99.90;;;;;;5060919;28;20216;-60
2021/07/19 03:22:26;;;;;;;4.07;3.63;;;17.30;99.90;;;;;;5066020;28;20199;-61
2021/07/19 03:24:54;;;;;;;4.43;3.80;;;17.50;99.90;;;;;;5067370;28;20189;-60
2021/07/19 03:27:21;;;;;;;4.55;3.55;;;17.40;99.90;;;;;;5061081;28;20565;-61
2021/07/19 03:29:49;;;;;;;4.28;3.40;;;17.60;99.90;;;;;;5067148;28;20208;-61
2021/07/19 03:32:17;;;;;;;4.30;3.92;;;17.30;99.90;;;;;;5068389;28;20655;-60
2021/07/19 03:34:43;;;;;;;3.55;3.25;;;17.30;99.90;;;;;;5064508;28;20665;-62
2021/07/19 03:37:10;;;;;;;4.65;4.25;;;17.30;99.90;;;;;;5056436;28;20296;-61
2021/07/19 03:39:39;;;;;;;4.20;3.80;;;17.30;99.90;;;;;;5056429;28;20204;-61
2021/07/19 03:42:05;;;;;;;4.57;3.70;;;17.20;99.90;;;;;;5060539;28;20630;-62
2021/07/19 03:44:33;;;;;;;4.82;4.15;;;17.10;99.90;;;;;;5066139;28;20212;-61
2021/07/19 03:46:59;;;;;;;3.85;3.55;;;17.30;99.90;;;;;;5057392;28;20239;-62
2021/07/19 03:49:25;;;;;;;4.40;4.00;;;17.20;99.90;;;;;;5051246;28;20292;-61
2021/07/19 03:51:51;;;;;;;6.23;4.63;;;17.20;99.90;;;;;;5068990;28;20184;-61
2021/07/19 03:54:16;;;;;;;5.60;3.97;;;17.20;99.90;;;;;;5064758;28;20277;-60
2021/07/19 03:56:43;;;;;;;7.90;4.03;;;17.20;99.90;;;;;;5064642;28;20638;-60
2021/07/19 03:59:09;;;;;;;8.60;7.78;;;17.40;99.90;;;;;;5061885;28;20183;-61
2021/07/19 04:01:36;;;;;;;4.25;3.85;;;17.20;99.90;;;;;;5064185;28;20189;-61
2021/07/19 04:04:08;;;;;;;5.47;3.90;;;17.10;99.90;;;;;;5060760;28;20195;-61
2021/07/19 04:06:34;;;;;;;4.65;3.80;;;17.20;99.90;;;;;;5062773;28;20189;-60
2021/07/19 04:09:00;;;;;;;4.05;3.72;;;17.20;99.90;;;;;;5060485;28;20205;-57
2021/07/19 04:11:27;;;;;;;4.97;4.57;;;17.40;99.90;;;;;;5058899;28;20200;-56
2021/07/19 04:13:54;;;;;;;5.35;4.22;;;17.20;99.90;;;;;;5059700;28;20462;-56
2021/07/19 04:16:20;;;;;;;5.82;3.90;;;17.30;99.90;;;;;;5063406;28;20239;-56
2021/07/19 04:18:47;;;;;;;4.68;4.28;;;17.30;99.90;;;;;;5061034;28;20186;-56
2021/07/19 04:21:13;;;;;;;8.18;5.18;;;17.40;99.90;;;;;;5057616;28;20674;-56
2021/07/19 04:23:39;;;;;;;3.80;3.50;;;17.40;99.90;;;;;;5055442;28;20196;-56
2021/07/19 04:26:05;;;;;;;5.00;4.60;;;17.40;99.90;;;;;;5057115;28;20442;-56
2021/07/19 04:28:34;;;;;;;4.50;4.10;;;17.30;99.90;;;;;;5054260;28;20181;-57
2021/07/19 04:31:00;;;;;;;5.47;4.55;;;17.40;99.90;;;;;;5056923;28;20491;-56
2021/07/19 04:33:26;;;;;;;5.97;4.20;;;17.50;99.90;;;;;;5056962;28;20193;-57
2021/07/19 04:35:52;;;;;;;5.63;4.70;;;17.50;99.90;;;;;;5060064;28;20208;-56
2021/07/19 04:38:21;;;;;;;4.07;3.70;;;17.40;99.90;;;;;;5050715;28;20284;-55
2021/07/19 04:40:57;;;;;;;6.40;4.43;;;17.50;99.90;;;;;;5055166;28;20662;-56
2021/07/19 04:43:24;;;;;;;4.78;4.38;;;17.60;99.90;;;;;;5059842;28;20283;-55
2021/07/19 04:45:51;;;;;;;4.38;4.05;;;17.70;99.90;;;;;;5061157;28;20191;-57
2021/07/19 04:48:17;;;;;;;5.07;4.50;;;17.80;99.90;;;;;;5055422;28;20182;-56
2021/07/19 04:50:44;;;;;;;4.82;4.38;;;17.80;99.90;;;;;;5055017;28;20320;-57
2021/07/19 04:53:10;;;;;;;4.70;4.15;;;17.90;99.90;;;;;;5054910;28;20181;-57
2021/07/19 04:55:44;;;;;;;5.40;4.57;;;18.00;99.90;;;;;;5056788;28;20186;-56
2021/07/19 04:58:14;;;;;;;4.90;4.40;;;18.00;99.90;;;;;;5066645;28;20605;-57
2021/07/19 05:00:40;;;;;;;4.57;4.18;;;18.00;99.90;;;;;;5057081;28;20224;-57
2021/07/19 05:03:09;;;;;;;4.82;3.78;;;18.10;99.90;;;;;;5058744;28;20196;-57
2021/07/19 05:05:36;;;;;;;6.47;5.88;;;18.20;99.90;;;;;;5056719;28;20189;-58
2021/07/19 05:08:03;;;;;;;4.85;4.32;;;17.80;99.90;;;;;;5053437;28;20189;-58
2021/07/19 05:10:29;;;;;;;5.95;4.40;;;18.30;99.90;;;;;;5057062;28;20213;-58
2021/07/19 05:12:56;;;;;;;5.30;4.80;;;18.40;99.90;;;;;;5054508;28;20185;-57
2021/07/19 05:15:22;;;;;;;5.13;4.72;;;18.50;99.90;;;;;;5052266;28;20189;-57
2021/07/19 05:17:48;;;;;;;7.63;5.53;;;18.60;99.90;;;;;;5065982;28;20177;-57
2021/07/19 05:20:17;;;;;;;6.40;4.67;;;18.60;99.90;;;;;;5060182;28;20216;-59
2021/07/19 05:22:51;;;;;;;5.13;4.65;;;18.80;99.90;;;;;;5057346;28;20181;-57
2021/07/19 05:25:24;;;;;;;5.00;4.05;;;18.90;99.90;;;;;;5057411;28;20186;-57
2021/07/19 05:28:05;;;;;;;5.53;4.70;;;19.00;99.90;;;;;;5064311;28;20239;-57
2021/07/19 05:30:31;;;;;;;6.13;5.00;;;19.10;99.90;;;;;;5056681;28;20483;-57
2021/07/19 05:32:57;;;;;;;11.98;5.03;;;19.40;99.90;;;;;;5052315;28;20189;-56
2021/07/19 05:35:23;;;;;;;5.67;4.50;;;19.50;99.90;;;;;;5049995;28;20219;-56
2021/07/19 05:37:49;;;;;;;4.77;3.93;;;19.90;99.90;;;;;;5057693;28;20720;-57
2021/07/19 05:40:16;;;;;;;4.15;3.78;;;20.10;99.90;;;;;;5056511;28;21095;-57
2021/07/19 05:42:42;;;;;;;4.63;4.22;;;20.40;99.90;;;;;;5057499;28;20238;-56
2021/07/19 05:45:09;;;;;;;4.50;4.10;;;20.60;99.90;;;;;;5059951;28;20188;-58
2021/07/19 05:47:35;;;;;;;8.02;4.75;;;20.70;99.90;;;;;;5057359;28;20184;-57
2021/07/19 05:50:01;;;;;;;5.57;4.70;;;21.00;99.90;;;;;;5050466;28;20704;-56
2021/07/19 05:52:27;;;;;;;4.30;3.90;;;21.10;99.90;;;;;;5057445;28;20482;-57
2021/07/19 05:54:53;;;;;;;4.10;3.70;;;21.20;99.90;;;;;;5058236;28;20246;-56
2021/07/19 05:57:18;;;;;;;5.63;4.07;;;21.40;99.90;;;;;;5058423;28;20189;-58
2021/07/19 05:59:44;;;;;;;4.30;3.90;;;21.50;99.90;;;;;;5057749;28;20209;-57
2021/07/19 06:02:10;;;;;;;4.53;4.13;;;21.50;99.90;;;;;;5058098;28;20444;-57
2021/07/19 06:04:35;;;;;;;4.40;4.00;;;21.60;99.90;;;;;;5052660;28;20196;-57
2021/07/19 06:07:01;;;;;;;6.67;3.77;;;21.80;99.90;;;;;;5059082;28;20197;-57
2021/07/19 06:09:27;;;;;;;4.10;3.70;;;21.90;99.90;;;;;;5055763;28;20354;-56
2021/07/19 06:11:55;;;;;;;4.47;4.10;;;22.00;99.90;;;;;;5062715;28;20184;-57
2021/07/19 06:14:21;;;;;;;4.47;4.00;;;22.00;99.90;;;;;;5049551;28;20174;-57
2021/07/19 06:16:50;;;;;;;4.40;4.00;;;22.00;99.90;;;;;;5059059;28;20457;-57
2021/07/19 06:19:16;;;;;;;4.30;3.90;;;22.10;99.90;;;;;;5054002;28;20196;-56
2021/07/19 06:21:42;;;;;;;5.30;4.80;;;22.10;99.90;;;;;;5057426;28;20189;-56
2021/07/19 06:24:08;;;;;;;6.00;4.67;;;22.00;99.90;;;;;;5058557;28;20443;-57
2021/07/19 06:26:34;;;;;;;4.87;4.20;;;22.10;99.90;;;;;;5057378;28;20665;-57
2021/07/19 06:28:59;;;;;;;6.00;5.00;;;22.10;99.90;;;;;;5059744;28;20196;-58
2021/07/19 06:31:25;;;;;;;6.50;4.73;;;21.90;99.90;;;;;;5059060;28;20195;-57
2021/07/19 06:33:50;;;;;;;4.87;4.43;;;21.90;99.90;;;;;;5058555;28;20267;-56
2021/07/19 06:36:17;;;;;;;5.30;4.80;;;22.10;99.90;;;;;;5052257;28;20189;-56
2021/07/19 06:38:43;;;;;;;8.18;4.95;;;22.20;99.90;;;;;;5058257;28;20187;-57
2021/07/19 06:41:12;;;;;;;6.47;4.83;;;22.30;99.90;;;;;;5054948;28;20201;-58
2021/07/19 06:43:38;;;;;;;5.20;4.80;;;22.20;99.90;;;;;;5055759;28;20201;-57
2021/07/19 06:46:04;;;;;;;4.20;3.90;;;22.30;99.90;;;;;;5055610;28;20654;-57
2021/07/19 06:48:29;;;;;;;7.40;4.57;;;22.50;99.90;;;;;;5061204;28;20509;-58
2021/07/19 06:50:58;;;;;;;5.00;4.60;;;22.70;99.90;;;;;;5056416;28;20219;-58
2021/07/19 06:53:24;;;;;;;6.47;4.73;;;23.00;99.90;;;;;;5053711;28;20189;-58
2021/07/19 06:55:49;;;;;;;5.97;5.07;;;23.60;99.90;;;;;;5061444;28;20437;-58
2021/07/19 06:58:15;;;;;;;5.23;4.60;;;24.60;99.60;;;;;;5053394;28;20177;-59
2021/07/19 07:00:40;;;;;;;5.00;4.50;;;25.60;97.10;;;;;;5055677;28;20548;-59
2021/07/19 07:03:06;;;;;;;4.60;4.30;;;25.70;96.30;;;;;;5057019;28;20844;-56
2021/07/19 07:05:32;;;;;;;5.63;4.90;;;25.60;95.80;;;;;;5058097;28;20721;-57
2021/07/19 07:07:57;;;;;;;11.07;7.80;;;25.80;95.80;;;;;;5062507;28;20676;-56
2021/07/19 07:10:26;;;;;;;5.67;4.80;;;26.20;95.60;;;;;;5055285;28;20221;-58
2021/07/19 07:12:52;;;;;;;4.63;4.23;;;26.80;94.00;;;;;;5062918;28;20686;-60
2021/07/19 07:15:17;;;;;;;6.90;5.20;;;27.90;92.00;;;;;;5054645;28;20781;-57
2021/07/19 07:17:43;;;;;;;6.00;5.40;;;29.40;88.50;;;;;;5054917;28;20182;-59
2021/07/19 07:20:11;;;;;;;5.13;4.60;;;29.70;84.50;;;;;;5052449;28;20212;-60
2021/07/19 07:22:37;;;;;;;7.10;5.30;;;31.80;79.30;;;;;;5050915;28;20181;-59
2021/07/19 07:25:04;;;;;;;5.13;4.57;;;32.40;73.90;;;;;;5063480;28;20431;-59
2021/07/19 07:27:30;;;;;;;4.60;4.10;;;32.80;72.30;;;;;;5061936;28;20526;-60
2021/07/19 07:29:56;;;;;;;6.40;4.37;;;34.40;66.40;;;;;;5057620;28;20894;-57
2021/07/19 07:32:21;;;;;;;8.30;5.37;;;35.50;62.00;;;;;;5055295;28;20559;-58
2021/07/19 07:34:47;;;;;;;4.30;3.97;;;36.50;57.90;;;;;;5063487;28;20279;-58
2021/07/19 07:37:13;;;;;;;4.10;3.80;;;36.80;56.00;;;;;;5059636;28;20239;-57
2021/07/19 07:39:42;;;;;;;4.73;4.33;;;36.90;55.30;;;;;;5055536;28;20229;-59
2021/07/19 07:42:09;;;;;;;4.10;3.70;;;37.30;53.70;;;;;;5062716;28;20275;-57
2021/07/19 07:44:36;;;;;;;3.80;3.50;;;37.50;52.60;;;;;;5051900;28;20479;-59
2021/07/19 07:47:03;;;;;;;4.37;4.07;;;37.90;50.80;;;;;;5064241;28;20445;-58
2021/07/19 07:49:28;;;;;;;4.37;3.97;;;37.50;51.10;;;;;;5058407;28;20484;-58
2021/07/19 07:51:56;;;;;;;4.57;4.17;;;37.40;51.10;;;;;;5057916;28;20440;-58
2021/07/19 07:54:22;;;;;;;4.20;3.90;;;38.30;50.00;;;;;;5061170;28;20181;-58
2021/07/19 07:56:47;;;;;;;5.30;4.50;;;38.80;48.80;;;;;;5064193;28;20441;-57
2021/07/19 07:59:14;;;;;;;4.20;3.80;;;38.80;48.00;;;;;;5071969;28;20193;-58
2021/07/19 08:01:39;;;;;;;4.53;4.23;;;38.90;47.90;;;;;;5057218;28;20181;-58
2021/07/19 08:04:05;;;;;;;4.10;3.70;;;36.60;49.80;;;;;;5054568;28;20452;-58
2021/07/19 08:06:30;;;;;;;4.50;4.10;;;37.40;50.20;;;;;;5062527;28;20200;-59
2021/07/19 08:08:56;;;;;;;3.73;3.43;;;37.90;49.20;;;;;;5064388;28;20184;-58
2021/07/19 08:11:22;;;;;;;4.80;4.40;;;38.20;49.00;;;;;;5060465;28;20205;-58
2021/07/19 08:13:47;;;;;;;5.10;4.73;;;38.70;47.90;;;;;;5060378;28;20217;-58
2021/07/19 08:16:13;;;;;;;5.03;4.60;;;39.40;46.90;;;;;;5059915;28;20317;-58
2021/07/19 08:18:39;;;;;;;5.37;4.87;;;38.90;47.50;;;;;;5054488;28;20189;-58
2021/07/19 08:21:04;;;;;;;4.83;4.37;;;38.40;47.40;;;;;;5055607;28;20560;-58
2021/07/19 08:23:30;;;;;;;5.03;4.13;;;38.70;48.00;;;;;;5057247;28;20193;-59
2021/07/19 08:25:56;;;;;;;6.50;4.30;;;39.80;46.10;;;;;;5061036;28;20201;-58
2021/07/19 08:28:21;;;;;;;4.70;3.80;;;38.60;46.90;;;;;;5050744;28;20397;-58
2021/07/19 08:30:47;;;;;;;6.20;4.17;;;39.00;47.70;;;;;;5056809;28;20213;-58
2021/07/19 08:33:13;;;;;;;4.97;4.57;;;39.40;46.40;;;;;;5061577;28;20181;-58
2021/07/19 08:35:39;;;;;;;6.20;4.20;;;38.60;46.80;;;;;;5064565;28;20253;-58
2021/07/19 08:38:06;;;;;;;4.80;4.30;;;39.00;46.80;;;;;;5064452;28;20177;-60
2021/07/19 08:40:32;;;;;;;6.10;4.00;;;38.60;46.70;;;;;;5055667;28;20463;-57
2021/07/19 08:42:59;;;;;;;5.63;4.07;;;39.00;46.60;;;;;;5064867;28;20438;-57
2021/07/19 08:45:24;;;;;;;5.40;4.90;;;38.40;47.40;;;;;;5055211;28;20851;-59
2021/07/19 08:47:52;;;;;;;5.80;4.60;;;39.00;46.50;;;;;;5054790;28;20937;-59
2021/07/19 08:50:21;;;;;;;5.70;5.13;;;39.50;45.70;;;;;;5053526;28;20768;-59
2021/07/19 08:52:52;;;;;;;4.73;4.33;;;37.80;46.60;;;;;;5058905;28;20436;-59
2021/07/19 08:55:18;;;;;;;6.00;5.50;;;37.90;48.10;;;;;;5056177;28;20447;-58
2021/07/19 08:57:46;;;;;;;5.23;4.83;;;38.90;46.60;;;;;;5059613;28;20783;-59
2021/07/19 09:00:13;;;;;;;7.30;6.70;;;39.60;46.00;;;;;;5062218;28;20916;-59
2021/07/19 09:02:39;;;;;;;7.13;5.03;;;38.90;46.40;;;;;;5057235;28;20469;-58
2021/07/19 09:05:05;;;;;;;4.93;4.43;;;39.20;45.50;;;;;;5059311;28;20975;-59
2021/07/19 09:07:32;;;;;;;7.23;4.40;;;39.10;45.70;;;;;;5052892;28;20443;-58
2021/07/19 09:09:59;;;;;;;4.60;4.17;;;39.10;45.00;;;;;;5060498;28;20862;-58
2021/07/19 09:12:58;;;;;;;5.73;5.23;;;38.90;45.00;;;;;;5060214;28;20447;-58
2021/07/19 09:15:33;;;;;;;5.30;4.90;;;38.50;46.10;;;;;;5040480;28;20783;-59
2021/07/19 09:18:00;;;;;;;5.80;5.30;;;38.70;45.50;;;;;;5063687;28;20427;-59
2021/07/19 09:20:32;;;;;;;5.10;4.70;;;38.20;46.30;;;;;;5056758;28;20549;-59
2021/07/19 09:22:58;;;;;;;5.70;5.27;;;39.30;45.30;;;;;;5057188;28;20926;-58
2021/07/19 09:25:24;;;;;;;5.83;4.47;;;39.10;45.00;;;;;;5066701;28;20534;-58
2021/07/19 09:28:05;;;;;;;6.03;4.43;;;38.70;45.40;;;;;;5054200;28;20243;-59
2021/07/19 09:30:33;;;;;;;5.17;4.50;;;39.20;44.70;;;;;;5061147;28;20471;-56
2021/07/19 09:33:03;;;;;;;5.00;4.50;;;38.30;45.40;;;;;;5061358;28;20807;-57
2021/07/19 09:35:30;;;;;;;7.27;5.10;;;37.90;46.90;;;;;;5062144;28;20494;-57
2021/07/19 09:38:02;;;;;;;5.27;4.87;;;38.50;45.80;;;;;;5058303;28;20436;-58
2021/07/19 09:40:29;;;;;;;7.73;4.90;;;38.50;45.60;;;;;;5058000;28;20502;-56
2021/07/19 09:42:54;;;;;;;5.40;4.57;;;38.60;44.40;;;;;;5061883;28;20539;-56
2021/07/19 09:45:29;;;;;;;4.70;4.30;;;38.00;46.40;;;;;;5056059;28;20545;-60
2021/07/19 09:48:07;;;;;;;5.60;5.10;;;37.10;47.70;;;;;;5058254;28;20187;-57
2021/07/19 09:50:53;;;;;;;5.63;5.13;;;37.10;47.60;;;;;;5057020;28;20570;-59
2021/07/19 09:53:33;;;;;;;5.30;4.80;;;36.90;48.00;;;;;;5052643;28;20894;-57
2021/07/19 09:56:09;;;;;;;4.97;4.67;;;37.30;48.00;;;;;;5066131;28;20492;-57
2021/07/19 09:58:36;;;;;;;6.10;5.47;;;35.30;50.50;;;;;;5062685;28;20797;-57
2021/07/19 10:01:02;;;;;;;5.20;4.70;;;35.10;51.30;;;;;;5051325;28;20456;-57
2021/07/19 10:03:30;;;;;;;5.30;4.73;;;34.80;51.50;;;;;;5059306;28;20503;-57
2021/07/19 10:06:07;;;;;;;5.30;4.90;;;33.30;53.20;;;;;;5059455;28;20199;-57
2021/07/19 10:08:33;;;;;;;5.53;5.03;;;32.70;54.60;;;;;;5052216;28;20448;-57
2021/07/19 10:10:59;;;;;;;7.90;6.10;;;31.80;56.10;;;;;;5049181;28;20483;-57
2021/07/19 10:13:33;;;;;;;5.53;5.03;;;30.90;59.00;;;;;;5060405;28;20542;-58
2021/07/19 10:16:00;;;;;;;6.10;4.83;;;31.50;58.80;;;;;;5057653;28;20454;-57
2021/07/19 10:18:30;;;;;;;5.10;4.70;;;32.20;57.00;;;;;;5054976;28;20454;-58
2021/07/19 10:20:56;;;;;;;4.80;4.50;;;32.30;57.00;;;;;;5060934;28;20506;-56
2021/07/19 10:23:22;;;;;;;7.33;4.90;;;32.80;56.70;;;;;;5057446;28;20712;-56
2021/07/19 10:25:48;;;;;;;5.23;4.70;;;33.90;54.60;;;;;;5061999;28;20818;-58
2021/07/19 10:28:14;;;;;;;6.03;4.73;;;35.20;51.90;;;;;;5056500;28;20280;-57
2021/07/19 10:30:41;;;;;;;4.77;4.37;;;35.20;50.90;;;;;;5060677;28;20475;-57
2021/07/19 10:33:07;;;;;;;8.03;5.17;;;34.70;50.80;;;;;;5050523;28;20440;-58
2021/07/19 10:35:34;;;;;;;4.03;3.70;;;34.00;50.90;;;;;;5057780;28;20474;-55
2021/07/19 10:38:13;;;;;;;5.07;4.67;;;33.50;52.10;;;;;;5052516;28;20719;-56
2021/07/19 10:40:43;;;;;;;4.63;4.30;;;33.10;53.00;;;;;;5056228;28;20466;-57
2021/07/19 10:43:13;;;;;;;4.20;3.90;;;32.50;53.80;;;;;;5055462;28;20522;-56
2021/07/19 10:45:44;;;;;;;5.37;4.40;;;31.60;56.20;;;;;;5057250;28;20449;-56
2021/07/19 10:48:21;;;;;;;9.73;4.80;;;30.90;57.20;;;;;;5064595;28;20481;-61
2021/07/19 10:50:47;;;;;;;4.93;4.47;;;30.50;59.00;;;;;;5051948;28;20485;-57
2021/07/19 10:53:22;;;;;;;4.70;4.40;;;30.90;57.40;;;;;;5058843;28;20441;-58
2021/07/19 10:56:28;;;;;;;5.03;4.63;;;31.80;55.50;;;;;;5055809;28;20517;-58
2021/07/19 10:58:54;;;;;;;4.17;3.73;;;31.60;55.60;;;;;;5056597;28;20480;-58
2021/07/19 11:01:25;;;;;;;4.27;3.87;;;31.10;56.90;;;;;;5057593;28;20997;-58
2021/07/19 11:03:52;;;;;;;4.33;4.03;;;30.30;57.40;;;;;;5057334;28;20238;-57
2021/07/19 11:06:36;;;;;;;4.50;4.10;;;30.90;57.40;;;;;;5068228;28;20445;-57
2021/07/19 11:09:07;;;;;;;4.23;3.83;;;32.10;55.40;;;;;;5053582;28;20431;-58
2021/07/19 11:11:39;;;;;;;7.43;4.60;;;32.70;52.20;;;;;;5061524;28;20504;-58
2021/07/19 11:14:16;;;;;;;4.97;4.47;;;32.40;53.10;;;;;;5062676;28;20440;-57
2021/07/19 11:16:45;;;;;;;4.77;4.07;;;31.80;54.90;;;;;;5062877;28;20430;-57
2021/07/19 11:19:14;;;;;;;4.07;3.60;;;32.50;54.00;;;;;;5064958;28;20437;-57
2021/07/19 11:21:42;;;;;;;3.90;3.60;;;32.70;53.50;;;;;;5059947;28;20431;-57
2021/07/19 11:24:09;;;;;;;3.77;3.47;;;32.30;53.60;;;;;;5060824;28;20431;-57
2021/07/19 11:26:47;;;;;;;3.67;3.20;;;32.10;54.00;;;;;;5063172;28;20459;-58
2021/07/19 11:29:24;;;;;;;4.30;3.60;;;32.60;53.10;;;;;;5061673;28;20518;-58
2021/07/19 11:32:25;;;;;;;4.60;4.20;;;33.70;51.60;;;;;;5067668;28;21228;-58
2021/07/19 11:34:51;;;;;;;3.80;3.50;;;34.30;50.90;;;;;;5040861;28;20516;-58
2021/07/19 11:37:17;;;;;;;3.50;3.20;;;34.50;48.80;;;;;;5057470;28;20963;-58
2021/07/19 11:39:46;;;;;;;8.63;3.60;;;35.20;47.70;;;;;;5055817;28;20201;-59
2021/07/19 11:42:12;;;;;;;4.00;3.40;;;35.80;46.60;;;;;;5059224;28;20444;-58
2021/07/19 11:44:39;;;;;;;4.67;3.27;;;35.80;46.30;;;;;;5064109;28;20474;-59
2021/07/19 11:47:06;;;;;;;3.73;3.40;;;35.40;46.30;;;;;;5058250;28;20481;-59
2021/07/19 11:49:33;;;;;;;3.43;3.13;;;35.50;46.00;;;;;;5062408;28;20487;-58
2021/07/19 11:51:59;;;;;;;3.60;3.10;;;35.40;46.10;;;;;;5059780;28;20464;-59
2021/07/19 11:54:25;;;;;;;6.07;3.27;;;34.40;47.00;;;;;;5054082;28;20438;-57
2021/07/19 11:56:54;;;;;;;3.80;3.10;;;34.00;47.60;;;;;;5059698;28;20443;-59
2021/07/19 11:59:20;;;;;;;3.60;3.30;;;33.30;49.30;;;;;;5053725;28;21056;-59
2021/07/19 12:02:04;;;;;;;4.40;3.43;;;32.80;51.30;;;;;;5059970;28;20443;-59
2021/07/19 12:04:43;;;;;;;4.80;3.23;;;32.10;50.80;;;;;;5064773;28;20989;-59
2021/07/19 12:07:11;;;;;;;3.33;3.03;;;31.30;52.80;;;;;;5066317;28;20433;-59
2021/07/19 12:09:39;;;;;;;3.60;3.30;;;31.50;53.10;;;;;;5054548;28;20475;-58
2021/07/19 12:12:06;;;;;;;3.20;2.90;;;31.10;52.60;;;;;;5058254;28;20438;-58
2021/07/19 12:14:31;;;;;;;3.03;2.60;;;30.60;53.40;;;;;;5063213;28;20497;-58
2021/07/19 12:16:58;;;;;;;3.40;3.10;;;30.40;52.70;;;;;;5061890;28;20448;-58
2021/07/19 12:19:24;;;;;;;2.77;2.30;;;30.20;53.90;;;;;;5059847;28;20680;-58
2021/07/19 12:21:51;;;;;;;3.57;2.87;;;30.20;54.60;;;;;;5062501;28;20449;-58
2021/07/19 12:24:18;;;;;;;4.20;3.80;;;30.10;53.70;;;;;;5060297;28;20236;-58
2021/07/19 12:26:55;;;;;;;3.53;3.23;;;30.00;54.40;;;;;;5060254;28;20444;-58
2021/07/19 12:29:39;;;;;;;2.93;2.50;;;29.90;53.60;;;;;;5052424;28;20489;-58
2021/07/19 12:32:06;;;;;;;2.43;2.23;;;29.90;52.80;;;;;;5062969;28;20457;-57
2021/07/19 12:34:39;;;;;;;4.50;3.70;;;29.80;52.90;;;;;;5060278;28;20489;-58
2021/07/19 12:37:07;;;;;;;3.07;2.67;;;30.00;53.00;;;;;;5056216;28;20441;-59
2021/07/19 12:39:36;;;;;;;3.07;2.30;;;30.20;52.90;;;;;;5057246;28;20513;-59
2021/07/19 12:42:13;;;;;;;4.57;2.87;;;30.10;53.10;;;;;;5061578;28;20506;-57
2021/07/19 12:44:43;;;;;;;3.50;3.20;;;30.10;54.10;;;;;;5052422;28;20431;-58
2021/07/19 12:47:09;;;;;;;2.97;2.70;;;29.90;54.70;;;;;;5063510;28;20879;-58
2021/07/19 12:49:37;;;;;;;3.43;2.80;;;29.60;54.00;;;;;;5055915;28;20554;-58
2021/07/19 12:52:20;;;;;;;3.20;2.83;;;29.60;53.80;;;;;;5057380;28;20194;-58